sensor_id;sensor_type;location;lat;lon;timestamp;pressure;altitude;pressure_sealevel;temperature;humidity
44297;BME280;51842;47.450;8.654;2022-11-09T00:00:53;95330.25;;;8.89;66.39
44297;BME280;51842;47.450;8.654;2022-11-09T00:03:19;95331.84;;;8.90;67.74
44297;BME280;51842;47.450;8.654;2022-11-09T00:05:56;95330.00;;;8.90;67.74
44297;BME280;51842;47.450;8.654;2022-11-09T00:08:25;95323.59;;;8.86;66.20
44297;BME280;51842;47.450;8.654;2022-11-09T00:10:51;95323.59;;;8.86;65.34
44297;BME280;51842;47.450;8.654;2022-11-09T00:13:20;95315.94;;;8.95;65.46
44297;BME280;51842;47.450;8.654;2022-11-09T00:15:49;95323.94;;;9.00;64.67
44297;BME280;51842;47.450;8.654;2022-11-09T00:18:21;95319.13;;;9.02;64.69
44297;BME280;51842;47.450;8.654;2022-11-09T00:20:46;95329.47;;;8.98;65.82
44297;BME280;51842;47.450;8.654;2022-11-09T00:23:15;95318.56;;;8.90;65.66
44297;BME280;51842;47.450;8.654;2022-11-09T00:25:41;95325.22;;;8.87;65.91
44297;BME280;51842;47.450;8.654;2022-11-09T00:28:07;95320.66;;;8.83;66.62
44297;BME280;51842;47.450;8.654;2022-11-09T00:30:36;95319.31;;;8.75;66.58
44297;BME280;51842;47.450;8.654;2022-11-09T00:33:02;95310.00;;;8.72;66.79
44297;BME280;51842;47.450;8.654;2022-11-09T00:35:27;95305.97;;;8.65;66.59
44297;BME280;51842;47.450;8.654;2022-11-09T00:37:53;95313.41;;;8.63;67.81
44297;BME280;51842;47.450;8.654;2022-11-09T00:40:19;95310.72;;;8.52;67.77
44297;BME280;51842;47.450;8.654;2022-11-09T00:42:45;95320.75;;;8.45;67.74
44297;BME280;51842;47.450;8.654;2022-11-09T00:45:10;95309.03;;;8.41;68.62
44297;BME280;51842;47.450;8.654;2022-11-09T00:47:39;95307.63;;;8.33;69.18
44297;BME280;51842;47.450;8.654;2022-11-09T00:50:08;95306.31;;;8.31;68.95
44297;BME280;51842;47.450;8.654;2022-11-09T00:52:34;95302.88;;;8.35;68.62
44297;BME280;51842;47.450;8.654;2022-11-09T00:55:02;95292.56;;;8.39;68.94
44297;BME280;51842;47.450;8.654;2022-11-09T00:57:28;95290.19;;;8.43;67.25
44297;BME280;51842;47.450;8.654;2022-11-09T00:59:54;95289.72;;;8.51;67.72
44297;BME280;51842;47.450;8.654;2022-11-09T01:02:22;95290.78;;;8.55;67.73
44297;BME280;51842;47.450;8.654;2022-11-09T01:04:48;95296.09;;;8.50;67.91
44297;BME280;51842;47.450;8.654;2022-11-09T01:07:13;95298.44;;;8.41;68.31
44297;BME280;51842;47.450;8.654;2022-11-09T01:09:39;95306.56;;;8.29;68.46
44297;BME280;51842;47.450;8.654;2022-11-09T01:12:05;95314.75;;;8.23;68.74
44297;BME280;51842;47.450;8.654;2022-11-09T01:14:34;95318.63;;;8.10;69.91
44297;BME280;51842;47.450;8.654;2022-11-09T01:16:59;95323.59;;;7.96;70.22
44297;BME280;51842;47.450;8.654;2022-11-09T01:19:25;95329.00;;;7.79;71.97
44297;BME280;51842;47.450;8.654;2022-11-09T01:21:54;95326.78;;;7.66;71.14
44297;BME280;51842;47.450;8.654;2022-11-09T01:24:19;95330.88;;;7.52;71.75
44297;BME280;51842;47.450;8.654;2022-11-09T01:27:00;95320.91;;;7.32;74.21
44297;BME280;51842;47.450;8.654;2022-11-09T01:29:26;95333.50;;;7.19;74.16
44297;BME280;51842;47.450;8.654;2022-11-09T01:31:55;95322.97;;;7.03;75.80
44297;BME280;51842;47.450;8.654;2022-11-09T01:34:23;95320.72;;;6.89;76.28
44297;BME280;51842;47.450;8.654;2022-11-09T01:36:50;95318.38;;;6.71;77.26
44297;BME280;51842;47.450;8.654;2022-11-09T01:39:17;95308.78;;;6.65;77.84
44297;BME280;51842;47.450;8.654;2022-11-09T01:41:44;95308.41;;;6.56;78.59
44297;BME280;51842;47.450;8.654;2022-11-09T01:44:18;95310.09;;;6.45;77.95
44297;BME280;51842;47.450;8.654;2022-11-09T01:47:00;95307.03;;;6.54;79.09
44297;BME280;51842;47.450;8.654;2022-11-09T01:49:50;95311.63;;;6.58;78.91
44297;BME280;51842;47.450;8.654;2022-11-09T01:52:32;95311.44;;;6.65;77.97
44297;BME280;51842;47.450;8.654;2022-11-09T01:55:07;95305.69;;;6.73;78.63
44297;BME280;51842;47.450;8.654;2022-11-09T01:58:02;95310.25;;;6.78;79.53
44297;BME280;51842;47.450;8.654;2022-11-09T02:00:33;95310.00;;;6.79;78.72
44297;BME280;51842;47.450;8.654;2022-11-09T02:03:08;95313.81;;;6.88;78.93
44297;BME280;51842;47.450;8.654;2022-11-09T02:05:41;95314.91;;;6.92;79.21
44297;BME280;51842;47.450;8.654;2022-11-09T02:08:08;95306.47;;;6.95;79.74
44297;BME280;51842;47.450;8.654;2022-11-09T02:13:33;95309.25;;;7.06;79.33
44297;BME280;51842;47.450;8.654;2022-11-09T02:15:59;95307.47;;;7.11;79.25
44297;BME280;51842;47.450;8.654;2022-11-09T02:18:27;95307.25;;;7.18;78.52
44297;BME280;51842;47.450;8.654;2022-11-09T02:20:56;95298.31;;;7.24;78.20
44297;BME280;51842;47.450;8.654;2022-11-09T02:23:25;95306.06;;;7.31;79.76
44297;BME280;51842;47.450;8.654;2022-11-09T02:26:12;95301.34;;;7.38;78.79
44297;BME280;51842;47.450;8.654;2022-11-09T02:28:40;95303.72;;;7.39;78.29
44297;BME280;51842;47.450;8.654;2022-11-09T02:31:13;95295.59;;;7.46;78.44
44297;BME280;51842;47.450;8.654;2022-11-09T02:34:22;95293.78;;;7.52;77.16
44297;BME280;51842;47.450;8.654;2022-11-09T02:36:49;95290.38;;;7.56;76.83
44297;BME280;51842;47.450;8.654;2022-11-09T02:39:20;95285.38;;;7.60;74.30
44297;BME280;51842;47.450;8.654;2022-11-09T02:42:05;95290.03;;;7.80;74.17
44297;BME280;51842;47.450;8.654;2022-11-09T02:44:47;95293.06;;;7.94;72.90
44297;BME280;51842;47.450;8.654;2022-11-09T02:47:14;95292.34;;;8.03;71.04
44297;BME280;51842;47.450;8.654;2022-11-09T02:49:40;95293.47;;;8.13;70.54
44297;BME280;51842;47.450;8.654;2022-11-09T02:52:05;95299.91;;;8.27;70.54
44297;BME280;51842;47.450;8.654;2022-11-09T02:54:31;95301.81;;;8.37;69.67
44297;BME280;51842;47.450;8.654;2022-11-09T02:57:00;95293.44;;;8.50;67.83
44297;BME280;51842;47.450;8.654;2022-11-09T02:59:28;95298.81;;;8.65;70.05
44297;BME280;51842;47.450;8.654;2022-11-09T03:01:56;95306.28;;;8.73;67.50
44297;BME280;51842;47.450;8.654;2022-11-09T03:04:22;95312.97;;;8.81;67.11
44297;BME280;51842;47.450;8.654;2022-11-09T03:06:53;95307.13;;;8.89;66.49
44297;BME280;51842;47.450;8.654;2022-11-09T03:09:19;95300.81;;;9.00;66.23
44297;BME280;51842;47.450;8.654;2022-11-09T03:11:45;95290.47;;;9.09;67.35
44297;BME280;51842;47.450;8.654;2022-11-09T03:14:11;95284.38;;;9.19;62.56
44297;BME280;51842;47.450;8.654;2022-11-09T03:16:38;95295.59;;;9.31;63.90
44297;BME280;51842;47.450;8.654;2022-11-09T03:19:10;95293.47;;;9.38;62.98
44297;BME280;51842;47.450;8.654;2022-11-09T03:21:36;95295.06;;;9.44;64.21
44297;BME280;51842;47.450;8.654;2022-11-09T03:24:02;95302.75;;;9.46;65.04
44297;BME280;51842;47.450;8.654;2022-11-09T03:26:28;95301.44;;;9.43;65.25
44297;BME280;51842;47.450;8.654;2022-11-09T03:28:56;95308.34;;;9.39;64.43
44297;BME280;51842;47.450;8.654;2022-11-09T03:31:25;95301.16;;;9.40;64.92
44297;BME280;51842;47.450;8.654;2022-11-09T03:33:51;95313.66;;;9.44;64.83
44297;BME280;51842;47.450;8.654;2022-11-09T03:36:16;95312.59;;;9.45;62.74
44297;BME280;51842;47.450;8.654;2022-11-09T03:38:42;95316.34;;;9.49;63.57
44297;BME280;51842;47.450;8.654;2022-11-09T03:41:08;95319.53;;;9.57;61.03
44297;BME280;51842;47.450;8.654;2022-11-09T03:43:34;95319.53;;;9.62;62.71
44297;BME280;51842;47.450;8.654;2022-11-09T03:45:59;95326.19;;;9.64;63.78
44297;BME280;51842;47.450;8.654;2022-11-09T03:48:25;95323.28;;;9.66;63.46
44297;BME280;51842;47.450;8.654;2022-11-09T03:50:57;95327.25;;;9.63;66.03
44297;BME280;51842;47.450;8.654;2022-11-09T03:53:22;95333.34;;;9.59;66.08
44297;BME280;51842;47.450;8.654;2022-11-09T03:55:48;95330.97;;;9.57;66.03
44297;BME280;51842;47.450;8.654;2022-11-09T03:58:14;95335.50;;;9.57;67.40
44297;BME280;51842;47.450;8.654;2022-11-09T04:00:39;95345.59;;;9.49;66.26
44297;BME280;51842;47.450;8.654;2022-11-09T04:03:05;95337.06;;;9.47;68.62
44297;BME280;51842;47.450;8.654;2022-11-09T04:05:31;95348.47;;;9.43;68.28
44297;BME280;51842;47.450;8.654;2022-11-09T04:07:57;95345.81;;;9.43;68.28
44297;BME280;51842;47.450;8.654;2022-11-09T04:10:25;95352.50;;;9.40;66.37
44297;BME280;51842;47.450;8.654;2022-11-09T04:12:54;95353.00;;;9.37;69.48
44297;BME280;51842;47.450;8.654;2022-11-09T04:15:26;95362.03;;;9.36;70.41
44297;BME280;51842;47.450;8.654;2022-11-09T04:18:00;95364.13;;;9.29;70.89
44297;BME280;51842;47.450;8.654;2022-11-09T04:20:29;95378.22;;;9.24;70.69
44297;BME280;51842;47.450;8.654;2022-11-09T04:23:03;95378.75;;;9.21;69.50
44297;BME280;51842;47.450;8.654;2022-11-09T04:25:34;95378.72;;;9.16;70.03
44297;BME280;51842;47.450;8.654;2022-11-09T04:28:03;95383.22;;;9.11;71.60
44297;BME280;51842;47.450;8.654;2022-11-09T04:30:34;95377.59;;;9.02;72.28
44297;BME280;51842;47.450;8.654;2022-11-09T04:33:02;95387.94;;;8.98;72.93
44297;BME280;51842;47.450;8.654;2022-11-09T04:35:30;95388.72;;;8.94;73.28
44297;BME280;51842;47.450;8.654;2022-11-09T04:38:06;95385.28;;;8.93;73.41
44297;BME280;51842;47.450;8.654;2022-11-09T04:40:34;95391.09;;;8.90;74.21
44297;BME280;51842;47.450;8.654;2022-11-09T04:43:03;95392.69;;;8.91;75.47
44297;BME280;51842;47.450;8.654;2022-11-09T04:45:31;95400.16;;;8.94;75.49
44297;BME280;51842;47.450;8.654;2022-11-09T04:48:02;95402.00;;;8.94;76.33
44297;BME280;51842;47.450;8.654;2022-11-09T04:50:29;95394.56;;;8.91;79.07
44297;BME280;51842;47.450;8.654;2022-11-09T04:53:12;95390.78;;;8.87;81.13
44297;BME280;51842;47.450;8.654;2022-11-09T04:55:40;95399.78;;;8.80;82.30
44297;BME280;51842;47.450;8.654;2022-11-09T04:58:07;95402.44;;;8.75;83.36
44297;BME280;51842;47.450;8.654;2022-11-09T05:00:33;95402.09;;;8.67;84.82
44297;BME280;51842;47.450;8.654;2022-11-09T05:03:05;95401.03;;;8.63;85.73
44297;BME280;51842;47.450;8.654;2022-11-09T05:05:36;95403.13;;;8.55;86.52
44297;BME280;51842;47.450;8.654;2022-11-09T05:08:04;95404.13;;;8.49;86.82
44297;BME280;51842;47.450;8.654;2022-11-09T05:10:31;95407.81;;;8.43;87.13
44297;BME280;51842;47.450;8.654;2022-11-09T05:13:06;95405.91;;;8.39;87.61
44297;BME280;51842;47.450;8.654;2022-11-09T05:15:33;95413.25;;;8.31;89.36
44297;BME280;51842;47.450;8.654;2022-11-09T05:18:00;95413.97;;;8.22;89.28
44297;BME280;51842;47.450;8.654;2022-11-09T05:20:27;95409.41;;;8.17;90.20
44297;BME280;51842;47.450;8.654;2022-11-09T05:22:54;95411.56;;;8.20;90.79
44297;BME280;51842;47.450;8.654;2022-11-09T05:25:38;95415.53;;;8.18;91.42
44297;BME280;51842;47.450;8.654;2022-11-09T05:28:04;95407.84;;;8.16;92.03
44297;BME280;51842;47.450;8.654;2022-11-09T05:30:30;95408.34;;;8.13;92.72
44297;BME280;51842;47.450;8.654;2022-11-09T05:32:56;95410.13;;;8.07;93.49
44297;BME280;51842;47.450;8.654;2022-11-09T05:35:22;95419.97;;;8.07;94.17
44297;BME280;51842;47.450;8.654;2022-11-09T05:37:49;95421.75;;;8.01;95.67
44297;BME280;51842;47.450;8.654;2022-11-09T05:40:17;95424.38;;;7.96;95.52
44297;BME280;51842;47.450;8.654;2022-11-09T05:42:44;95426.97;;;7.91;96.65
44297;BME280;51842;47.450;8.654;2022-11-09T05:45:17;95423.81;;;7.94;96.74
44297;BME280;51842;47.450;8.654;2022-11-09T05:47:44;95427.28;;;7.95;96.31
44297;BME280;51842;47.450;8.654;2022-11-09T05:50:14;95439.19;;;7.92;97.28
44297;BME280;51842;47.450;8.654;2022-11-09T05:52:40;95440.75;;;7.88;97.12
44297;BME280;51842;47.450;8.654;2022-11-09T05:55:07;95447.41;;;7.91;96.79
44297;BME280;51842;47.450;8.654;2022-11-09T05:57:39;95450.06;;;7.91;97.11
44297;BME280;51842;47.450;8.654;2022-11-09T06:00:06;95457.22;;;7.90;97.08
44297;BME280;51842;47.450;8.654;2022-11-09T06:02:33;95452.94;;;7.89;97.33
44297;BME280;51842;47.450;8.654;2022-11-09T06:04:58;95462.50;;;7.90;97.71
44297;BME280;51842;47.450;8.654;2022-11-09T06:07:24;95458.50;;;7.87;98.74
44297;BME280;51842;47.450;8.654;2022-11-09T06:09:50;95461.16;;;7.87;100.00
44297;BME280;51842;47.450;8.654;2022-11-09T06:12:16;95465.41;;;7.88;99.67
44297;BME280;51842;47.450;8.654;2022-11-09T06:14:41;95468.63;;;7.91;100.00
44297;BME280;51842;47.450;8.654;2022-11-09T06:17:07;95463.31;;;7.91;100.00
44297;BME280;51842;47.450;8.654;2022-11-09T06:19:33;95462.19;;;7.86;100.00
44297;BME280;51842;47.450;8.654;2022-11-09T06:21:58;95471.28;;;7.91;100.00
44297;BME280;51842;47.450;8.654;2022-11-09T06:24:24;95476.31;;;7.92;100.00
44297;BME280;51842;47.450;8.654;2022-11-09T06:26:53;95487.22;;;7.96;100.00
44297;BME280;51842;47.450;8.654;2022-11-09T06:29:18;95479.31;;;8.01;100.00
44297;BME280;51842;47.450;8.654;2022-11-09T06:31:44;95484.47;;;8.13;100.00
44297;BME280;51842;47.450;8.654;2022-11-09T06:34:10;95485.88;;;8.20;100.00
44297;BME280;51842;47.450;8.654;2022-11-09T06:36:36;95488.28;;;8.22;100.00
44297;BME280;51842;47.450;8.654;2022-11-09T06:39:02;95475.81;;;8.22;100.00
44297;BME280;51842;47.450;8.654;2022-11-09T06:41:27;95471.81;;;8.20;100.00
44297;BME280;51842;47.450;8.654;2022-11-09T06:43:53;95477.88;;;8.15;100.00
44297;BME280;51842;47.450;8.654;2022-11-09T06:46:19;95484.78;;;8.16;100.00
44297;BME280;51842;47.450;8.654;2022-11-09T06:48:45;95488.22;;;8.17;100.00
44297;BME280;51842;47.450;8.654;2022-11-09T06:51:11;95493.81;;;8.20;100.00
44297;BME280;51842;47.450;8.654;2022-11-09T06:53:37;95493.31;;;8.23;100.00
44297;BME280;51842;47.450;8.654;2022-11-09T06:56:06;95490.44;;;8.25;100.00
44297;BME280;51842;47.450;8.654;2022-11-09T06:58:32;95491.22;;;8.25;100.00
44297;BME280;51842;47.450;8.654;2022-11-09T07:01:10;95488.06;;;8.28;100.00
44297;BME280;51842;47.450;8.654;2022-11-09T07:03:40;95480.66;;;8.30;100.00
44297;BME280;51842;47.450;8.654;2022-11-09T07:06:09;95481.03;;;8.39;100.00
44297;BME280;51842;47.450;8.654;2022-11-09T07:08:36;95500.72;;;8.43;100.00
44297;BME280;51842;47.450;8.654;2022-11-09T07:11:12;95503.94;;;8.50;100.00
44297;BME280;51842;47.450;8.654;2022-11-09T07:13:39;95500.28;;;8.56;100.00
44297;BME280;51842;47.450;8.654;2022-11-09T07:16:05;95509.09;;;8.62;100.00
44297;BME280;51842;47.450;8.654;2022-11-09T07:18:32;95512.34;;;8.69;100.00
44297;BME280;51842;47.450;8.654;2022-11-09T07:21:04;95510.53;;;8.75;100.00
44297;BME280;51842;47.450;8.654;2022-11-09T07:23:33;95523.81;;;8.80;100.00
44297;BME280;51842;47.450;8.654;2022-11-09T07:25:59;95517.75;;;8.85;100.00
44297;BME280;51842;47.450;8.654;2022-11-09T07:28:24;95514.09;;;8.91;100.00
44297;BME280;51842;47.450;8.654;2022-11-09T07:30:50;95515.69;;;8.92;100.00
44297;BME280;51842;47.450;8.654;2022-11-09T07:33:19;95515.69;;;8.92;100.00
44297;BME280;51842;47.450;8.654;2022-11-09T07:35:45;95521.78;;;8.92;100.00
44297;BME280;51842;47.450;8.654;2022-11-09T07:38:13;95521.03;;;8.97;100.00
44297;BME280;51842;47.450;8.654;2022-11-09T07:40:44;95522.16;;;9.06;100.00
44297;BME280;51842;47.450;8.654;2022-11-09T07:43:11;95520.06;;;9.13;100.00
44297;BME280;51842;47.450;8.654;2022-11-09T07:45:37;95523.56;;;9.19;100.00
44297;BME280;51842;47.450;8.654;2022-11-09T07:48:10;95520.69;;;9.25;100.00
44297;BME280;51842;47.450;8.654;2022-11-09T07:50:38;95528.13;;;9.29;100.00
44297;BME280;51842;47.450;8.654;2022-11-09T07:53:06;95532.16;;;9.31;100.00
44297;BME280;51842;47.450;8.654;2022-11-09T07:55:35;95530.28;;;9.37;100.00
44297;BME280;51842;47.450;8.654;2022-11-09T07:58:07;95534.91;;;9.46;100.00
44297;BME280;51842;47.450;8.654;2022-11-09T08:00:37;95539.47;;;9.56;100.00
44297;BME280;51842;47.450;8.654;2022-11-09T08:03:04;95528.81;;;9.61;100.00
44297;BME280;51842;47.450;8.654;2022-11-09T08:05:31;95529.09;;;9.65;100.00
44297;BME280;51842;47.450;8.654;2022-11-09T08:08:03;95525.44;;;9.76;100.00
44297;BME280;51842;47.450;8.654;2022-11-09T08:10:32;95533.44;;;9.81;100.00
44297;BME280;51842;47.450;8.654;2022-11-09T08:13:01;95524.69;;;9.86;100.00
44297;BME280;51842;47.450;8.654;2022-11-09T08:15:29;95520.16;;;9.86;100.00
44297;BME280;51842;47.450;8.654;2022-11-09T08:18:03;95527.59;;;9.89;100.00
44297;BME280;51842;47.450;8.654;2022-11-09T08:20:29;95524.41;;;9.82;100.00
44297;BME280;51842;47.450;8.654;2022-11-09T08:22:55;95524.13;;;9.84;100.00
44297;BME280;51842;47.450;8.654;2022-11-09T08:25:21;95520.19;;;9.91;99.52
44297;BME280;51842;47.450;8.654;2022-11-09T08:27:48;95519.97;;;10.13;99.98
44297;BME280;51842;47.450;8.654;2022-11-09T08:30:20;95519.97;;;10.24;98.02
44297;BME280;51842;47.450;8.654;2022-11-09T08:32:47;95522.97;;;10.48;98.93
44297;BME280;51842;47.450;8.654;2022-11-09T08:35:17;95521.13;;;10.63;99.73
44297;BME280;51842;47.450;8.654;2022-11-09T08:37:45;95526.97;;;10.81;99.00
44297;BME280;51842;47.450;8.654;2022-11-09T08:40:18;95536.34;;;10.94;98.70
44297;BME280;51842;47.450;8.654;2022-11-09T08:42:44;95537.91;;;11.05;96.65
44297;BME280;51842;47.450;8.654;2022-11-09T08:45:14;95536.28;;;11.09;96.15
44297;BME280;51842;47.450;8.654;2022-11-09T08:47:41;95538.41;;;11.17;96.55
44297;BME280;51842;47.450;8.654;2022-11-09T08:50:13;95529.59;;;11.27;96.53
44297;BME280;51842;47.450;8.654;2022-11-09T08:52:40;95524.53;;;11.35;96.59
44297;BME280;51842;47.450;8.654;2022-11-09T08:55:07;95525.03;;;11.43;96.15
44297;BME280;51842;47.450;8.654;2022-11-09T08:57:33;95527.69;;;11.48;96.75
44297;BME280;51842;47.450;8.654;2022-11-09T09:00:04;95516.75;;;11.54;96.88
44297;BME280;51842;47.450;8.654;2022-11-09T09:02:30;95511.66;;;11.63;96.60
44297;BME280;51842;47.450;8.654;2022-11-09T09:04:55;95510.56;;;11.64;96.27
44297;BME280;51842;47.450;8.654;2022-11-09T09:07:21;95507.34;;;11.67;96.28
44297;BME280;51842;47.450;8.654;2022-11-09T09:09:49;95499.34;;;11.72;95.52
44297;BME280;51842;47.450;8.654;2022-11-09T09:12:15;95496.91;;;11.76;95.46
44297;BME280;51842;47.450;8.654;2022-11-09T09:14:43;95499.88;;;11.69;94.17
44297;BME280;51842;47.450;8.654;2022-11-09T09:17:09;95495.84;;;11.77;94.00
44297;BME280;51842;47.450;8.654;2022-11-09T09:19:35;95483.84;;;11.85;94.84
44297;BME280;51842;47.450;8.654;2022-11-09T09:22:01;95484.63;;;11.85;93.16
44297;BME280;51842;47.450;8.654;2022-11-09T09:24:27;95485.66;;;11.94;93.19
44297;BME280;51842;47.450;8.654;2022-11-09T09:26:53;95483.50;;;11.96;93.26
44297;BME280;51842;47.450;8.654;2022-11-09T09:29:19;95480.00;;;12.01;92.29
44297;BME280;51842;47.450;8.654;2022-11-09T09:31:45;95484.19;;;12.12;92.88
44297;BME280;51842;47.450;8.654;2022-11-09T09:34:13;95482.03;;;12.19;92.15
44297;BME280;51842;47.450;8.654;2022-11-09T09:36:39;95486.28;;;12.25;91.98
44297;BME280;51842;47.450;8.654;2022-11-09T09:39:08;95493.69;;;12.34;92.24
44297;BME280;51842;47.450;8.654;2022-11-09T09:41:50;95505.16;;;12.34;92.52
44297;BME280;51842;47.450;8.654;2022-11-09T09:47:09;95498.22;;;12.38;92.92
44297;BME280;51842;47.450;8.654;2022-11-09T09:49:57;95499.00;;;12.39;92.62
44297;BME280;51842;47.450;8.654;2022-11-09T09:55:52;95502.53;;;12.29;92.33
44297;BME280;51842;47.450;8.654;2022-11-09T09:58:30;95502.53;;;12.29;92.54
44297;BME280;51842;47.450;8.654;2022-11-09T10:01:19;95506.81;;;12.30;94.41
44297;BME280;51842;47.450;8.654;2022-11-09T10:03:46;95507.66;;;12.25;93.97
44297;BME280;51842;47.450;8.654;2022-11-09T10:12:35;95499.66;;;12.20;94.21
44297;BME280;51842;47.450;8.654;2022-11-09T10:15:32;95496.88;;;12.36;92.88
44297;BME280;51842;47.450;8.654;2022-11-09T10:18:03;95497.09;;;12.44;92.01
44297;BME280;51842;47.450;8.654;2022-11-09T10:23:56;95504.97;;;12.65;92.52
44297;BME280;51842;47.450;8.654;2022-11-09T10:26:49;95505.50;;;12.62;92.64
44297;BME280;51842;47.450;8.654;2022-11-09T10:29:26;95508.94;;;12.67;93.47
44297;BME280;51842;47.450;8.654;2022-11-09T10:32:00;95508.16;;;12.67;94.26
44297;BME280;51842;47.450;8.654;2022-11-09T10:37:48;95497.41;;;12.72;93.91
44297;BME280;51842;47.450;8.654;2022-11-09T10:41:07;95489.09;;;12.79;91.46
44297;BME280;51842;47.450;8.654;2022-11-09T10:43:36;95493.34;;;12.80;91.35
44297;BME280;51842;47.450;8.654;2022-11-09T10:46:06;95487.22;;;12.79;91.29
44297;BME280;51842;47.450;8.654;2022-11-09T10:48:36;95495.81;;;12.71;91.58
44297;BME280;51842;47.450;8.654;2022-11-09T10:51:04;95490.81;;;12.64;91.70
44297;BME280;51842;47.450;8.654;2022-11-09T10:53:32;95492.94;;;12.62;90.47
44297;BME280;51842;47.450;8.654;2022-11-09T10:56:17;95484.47;;;12.55;91.03
44297;BME280;51842;47.450;8.654;2022-11-09T10:58:52;95487.41;;;12.54;91.98
44297;BME280;51842;47.450;8.654;2022-11-09T11:01:35;95480.22;;;12.49;91.11
44297;BME280;51842;47.450;8.654;2022-11-09T11:04:20;95482.34;;;12.52;89.50
44297;BME280;51842;47.450;8.654;2022-11-09T11:06:47;95481.56;;;12.46;89.67
44297;BME280;51842;47.450;8.654;2022-11-09T11:09:19;95480.25;;;12.44;90.71
44297;BME280;51842;47.450;8.654;2022-11-09T11:11:45;95482.09;;;12.48;90.74
44297;BME280;51842;47.450;8.654;2022-11-09T11:16:47;95460.94;;;12.57;90.61
44297;BME280;51842;47.450;8.654;2022-11-09T11:19:38;95456.84;;;12.65;91.16
44297;BME280;51842;47.450;8.654;2022-11-09T11:24:44;95443.66;;;12.79;91.18
44297;BME280;51842;47.450;8.654;2022-11-09T11:30:18;95451.00;;;12.92;91.22
44297;BME280;51842;47.450;8.654;2022-11-09T11:32:47;95438.47;;;12.87;90.90
44297;BME280;51842;47.450;8.654;2022-11-09T11:35:29;95438.47;;;12.87;89.65
44297;BME280;51842;47.450;8.654;2022-11-09T11:38:33;95441.16;;;12.87;89.83
44297;BME280;51842;47.450;8.654;2022-11-09T11:41:32;95433.44;;;12.86;90.23
44297;BME280;51842;47.450;8.654;2022-11-09T12:16:03;95406.72;;;12.57;90.82
44297;BME280;51842;47.450;8.654;2022-11-09T12:22:00;95409.19;;;12.48;91.57
44297;BME280;51842;47.450;8.654;2022-11-09T12:25:03;95405.47;;;12.44;93.21
44297;BME280;51842;47.450;8.654;2022-11-09T12:30:22;95408.94;;;12.44;94.56
44297;BME280;51842;47.450;8.654;2022-11-09T12:33:06;95407.09;;;12.40;94.99
44297;BME280;51842;47.450;8.654;2022-11-09T12:35:47;95407.09;;;12.40;94.77
44297;BME280;51842;47.450;8.654;2022-11-09T12:38:24;95404.44;;;12.40;93.98
44297;BME280;51842;47.450;8.654;2022-11-09T12:40:59;95413.56;;;12.34;94.30
44297;BME280;51842;47.450;8.654;2022-11-09T12:46:28;95414.59;;;12.38;95.01
44297;BME280;51842;47.450;8.654;2022-11-09T12:49:03;95411.69;;;12.34;94.88
44297;BME280;51842;47.450;8.654;2022-11-09T12:51:31;95415.97;;;12.35;95.49
44297;BME280;51842;47.450;8.654;2022-11-09T12:54:07;95414.41;;;12.29;95.99
44297;BME280;51842;47.450;8.654;2022-11-09T12:56:55;95419.53;;;12.20;95.35
44297;BME280;51842;47.450;8.654;2022-11-09T13:01:58;95422.28;;;12.10;97.97
44297;BME280;51842;47.450;8.654;2022-11-09T13:04:25;95418.53;;;12.11;97.65
44297;BME280;51842;47.450;8.654;2022-11-09T13:07:16;95420.41;;;12.11;98.01
44297;BME280;51842;47.450;8.654;2022-11-09T13:09:43;95419.09;;;12.08;98.85
44297;BME280;51842;47.450;8.654;2022-11-09T13:12:36;95423.16;;;12.00;98.17
44297;BME280;51842;47.450;8.654;2022-11-09T13:23:52;95425.66;;;11.81;99.13
44297;BME280;51842;47.450;8.654;2022-11-09T13:34:43;95440.16;;;11.60;100.00
44297;BME280;51842;47.450;8.654;2022-11-09T13:43:34;95446.59;;;11.44;100.00
44297;BME280;51842;47.450;8.654;2022-11-09T13:46:25;95453.06;;;11.38;100.00
44297;BME280;51842;47.450;8.654;2022-11-09T13:48:54;95450.13;;;11.34;100.00
44297;BME280;51842;47.450;8.654;2022-11-09T13:54:03;95446.69;;;11.28;100.00
44297;BME280;51842;47.450;8.654;2022-11-09T13:59:43;95455.50;;;11.24;100.00
44297;BME280;51842;47.450;8.654;2022-11-09T14:02:23;95454.16;;;11.21;100.00
44297;BME280;51842;47.450;8.654;2022-11-09T14:04:49;95452.31;;;11.17;100.00
44297;BME280;51842;47.450;8.654;2022-11-09T14:07:25;95453.66;;;11.14;100.00
44297;BME280;51842;47.450;8.654;2022-11-09T14:21:06;95467.00;;;11.04;100.00
44297;BME280;51842;47.450;8.654;2022-11-09T14:23:33;95457.41;;;11.03;100.00
44297;BME280;51842;47.450;8.654;2022-11-09T14:26:20;95458.22;;;11.03;100.00
44297;BME280;51842;47.450;8.654;2022-11-09T14:28:46;95471.56;;;10.98;100.00
44297;BME280;51842;47.450;8.654;2022-11-09T14:31:28;95467.84;;;10.94;100.00
44297;BME280;51842;47.450;8.654;2022-11-09T14:34:05;95479.81;;;10.92;100.00
44297;BME280;51842;47.450;8.654;2022-11-09T14:36:34;95485.44;;;10.85;100.00
44297;BME280;51842;47.450;8.654;2022-11-09T14:39:13;95482.75;;;10.85;100.00
44297;BME280;51842;47.450;8.654;2022-11-09T14:41:44;95478.75;;;10.82;100.00
44297;BME280;51842;47.450;8.654;2022-11-09T14:46:56;95485.41;;;10.75;100.00
44297;BME280;51842;47.450;8.654;2022-11-09T14:49:26;95492.34;;;10.71;100.00
44297;BME280;51842;47.450;8.654;2022-11-09T14:51:55;95490.50;;;10.66;100.00
44297;BME280;51842;47.450;8.654;2022-11-09T14:54:24;95491.03;;;10.63;100.00
44297;BME280;51842;47.450;8.654;2022-11-09T14:56:53;95495.03;;;10.60;100.00
44297;BME280;51842;47.450;8.654;2022-11-09T14:59:34;95489.44;;;10.57;100.00
44297;BME280;51842;47.450;8.654;2022-11-09T15:02:14;95499.53;;;10.55;100.00
44297;BME280;51842;47.450;8.654;2022-11-09T15:05:04;95507.53;;;10.50;100.00
44297;BME280;51842;47.450;8.654;2022-11-09T15:07:34;95502.75;;;10.47;100.00
44297;BME280;51842;47.450;8.654;2022-11-09T15:10:05;95501.41;;;10.44;100.00
44297;BME280;51842;47.450;8.654;2022-11-09T15:12:34;95512.59;;;10.41;100.00
44297;BME280;51842;47.450;8.654;2022-11-09T15:15:06;95515.00;;;10.37;100.00
44297;BME280;51842;47.450;8.654;2022-11-09T15:17:43;95521.38;;;10.31;100.00
44297;BME280;51842;47.450;8.654;2022-11-09T15:27:40;95516.78;;;10.16;100.00